Time;durP1;ratioP1;P1;durP2;ratioP2;P2;SDS_P1;SDS_P2;PMS_P1;PMS_P2;Temp;Humidity;BMP_temperature;BMP_pressure;BME280_temperature;BME280_humidity;BME280_pressure;Samples;Min_cycle;Max_cycle;Signal;HPM_P1;HPM_P2
2022/06/10 00:00:34;;;;;;;3.05;1.88;;;;;;;9.19;100.00;96295.28;5101838;27;20299;-62
2022/06/10 00:03:00;;;;;;;4.10;1.95;;;;;;;9.23;100.00;96296.72;5102443;27;20031;-63
2022/06/10 00:05:28;;;;;;;5.97;2.10;;;;;;;9.21;100.00;96296.84;5103573;27;20030;-61
2022/06/10 00:07:54;;;;;;;6.05;2.83;;;;;;;9.12;100.00;96300.19;5102381;27;20050;-62
2022/06/10 00:10:41;;;;;;;3.33;2.00;;;;;;;9.12;100.00;96294.91;5099897;27;20517;-62
2022/06/10 00:13:06;;;;;;;3.97;2.63;;;;;;;9.07;100.00;96292.63;5096237;27;20402;-61
2022/06/10 00:15:33;;;;;;;5.55;2.30;;;;;;;8.99;100.00;96295.03;5097606;27;20025;-62
2022/06/10 00:17:59;;;;;;;5.15;2.25;;;;;;;9.03;100.00;96296.47;5098239;27;20020;-61
2022/06/10 00:20:27;;;;;;;3.80;2.50;;;;;;;8.99;100.00;96298.47;5098570;28;20027;-61
2022/06/10 00:22:53;;;;;;;3.20;2.05;;;;;;;8.99;100.00;96289.78;5100147;27;20035;-61
2022/06/10 00:25:19;;;;;;;7.53;2.08;;;;;;;8.99;100.00;96293.22;5096226;27;20020;-61
2022/06/10 00:27:45;;;;;;;3.45;2.15;;;;;;;9.03;100.00;96293.84;5103327;27;20024;-61
2022/06/10 00:30:11;;;;;;;6.90;2.20;;;;;;;9.05;100.00;96302.44;5102353;27;20039;-61
2022/06/10 00:32:37;;;;;;;5.68;2.20;;;;;;;9.04;100.00;96292.88;5107440;27;20036;-61
2022/06/10 00:35:04;;;;;;;3.75;2.13;;;;;;;8.96;100.00;96292.66;5100130;27;20023;-62
2022/06/10 00:37:29;;;;;;;3.88;2.20;;;;;;;8.95;100.00;96285.69;5101577;27;20573;-61
2022/06/10 00:39:55;;;;;;;5.78;2.63;;;;;;;8.95;100.00;96288.31;5096141;27;20052;-61
2022/06/10 00:42:20;;;;;;;4.15;2.42;;;;;;;8.90;100.00;96288.69;5101837;27;20027;-60
2022/06/10 00:44:52;;;;;;;4.50;3.10;;;;;;;8.89;100.00;96284.41;5098869;27;20033;-60
2022/06/10 00:47:32;;;;;;;6.55;2.45;;;;;;;8.89;100.00;96279.97;5101925;27;20153;-61
2022/06/10 00:50:27;;;;;;;5.60;2.53;;;;;;;8.81;100.00;96287.59;5091364;27;20441;-60
2022/06/10 00:52:59;;;;;;;5.83;2.70;;;;;;;8.78;100.00;96287.84;5100256;27;20982;-61
2022/06/10 00:55:28;;;;;;;4.18;2.55;;;;;;;8.75;100.00;96285.44;5100536;27;20097;-61
2022/06/10 00:58:00;;;;;;;3.67;2.30;;;;;;;8.80;100.00;96280.66;5099421;27;20027;-61
2022/06/10 01:00:28;;;;;;;2.88;2.45;;;;;;;8.75;100.00;96288.06;5100880;27;20040;-61
2022/06/10 01:02:53;;;;;;;4.28;2.20;;;;;;;8.62;100.00;96279.44;5101797;27;20031;-60
2022/06/10 01:05:23;;;;;;;3.25;2.13;;;;;;;8.58;100.00;96277.03;5099240;27;20024;-60
2022/06/10 01:07:55;;;;;;;5.45;2.45;;;;;;;8.64;100.00;96273.13;5102379;27;20035;-60
2022/06/10 01:10:21;;;;;;;3.03;2.10;;;;;;;8.59;100.00;96277.88;5100411;27;20042;-61
2022/06/10 01:13:07;;;;;;;3.53;2.22;;;;;;;8.65;100.00;96273.94;5099030;27;20028;-61
2022/06/10 01:15:40;;;;;;;5.43;2.30;;;;;;;8.68;100.00;96271.09;5094847;27;20027;-61
2022/06/10 01:18:27;;;;;;;7.25;2.40;;;;;;;8.63;100.00;96268.84;5103852;28;20058;-61
2022/06/10 01:20:58;;;;;;;2.72;1.88;;;;;;;8.56;100.00;96260.56;5096729;27;20394;-61
2022/06/10 01:23:54;;;;;;;6.47;2.20;;;;;;;8.52;100.00;96269.63;5100553;27;20042;-61
2022/06/10 01:26:32;;;;;;;2.38;1.83;;;;;;;8.56;100.00;96264.97;5101119;27;20039;-61
2022/06/10 01:29:47;;;;;;;4.78;2.30;;;;;;;8.54;100.00;96265.09;5099000;27;20035;-61
2022/06/10 01:32:31;;;;;;;6.10;2.70;;;;;;;8.51;100.00;96262.72;5096474;28;20113;-60
2022/06/10 01:35:25;;;;;;;4.13;2.78;;;;;;;8.47;100.00;96255.97;5099175;28;20055;-61
2022/06/10 01:38:05;;;;;;;4.30;2.10;;;;;;;8.47;100.00;96261.22;5095279;28;20371;-61
2022/06/10 01:40:47;;;;;;;2.55;1.88;;;;;;;8.46;100.00;96260.41;5106560;28;20397;-61
2022/06/10 01:43:26;;;;;;;5.68;2.10;;;;;;;8.48;100.00;96268.13;5093802;28;20032;-61
2022/06/10 01:46:20;;;;;;;4.97;1.90;;;;;;;8.42;100.00;96263.34;5098711;28;20558;-61
2022/06/10 01:49:12;;;;;;;2.65;1.95;;;;;;;8.38;100.00;96272.41;5096956;28;20020;-61
2022/06/10 01:51:46;;;;;;;3.22;1.80;;;;;;;8.43;100.00;96272.91;5044765;28;20040;-61
2022/06/10 01:54:47;;;;;;;3.78;2.20;;;;;;;8.38;100.00;96277.66;5098249;27;20024;-61
2022/06/10 01:57:22;;;;;;;2.30;2.10;;;;;;;8.34;100.00;96276.22;5084115;28;20048;-61
2022/06/10 02:00:01;;;;;;;4.95;2.88;;;;;;;8.42;100.00;96274.69;5098278;28;20085;-60
2022/06/10 02:02:31;;;;;;;2.50;2.20;;;;;;;8.44;100.00;96277.19;5097425;28;20533;-61
2022/06/10 02:05:07;;;;;;;3.55;2.00;;;;;;;8.42;100.00;96273.84;5106525;28;20027;-61
2022/06/10 02:07:42;;;;;;;2.67;1.92;;;;;;;8.34;100.00;96276.22;5099606;28;20422;-61
2022/06/10 02:10:15;;;;;;;2.83;2.35;;;;;;;8.27;100.00;96281.06;5104875;28;20038;-61
2022/06/10 02:12:45;;;;;;;4.30;2.60;;;;;;;8.28;100.00;96283.56;5096484;28;20048;-61
2022/06/10 02:15:54;;;;;;;2.03;1.92;;;;;;;8.30;100.00;96281.69;5098798;28;20020;-61
2022/06/10 02:18:39;;;;;;;2.00;1.80;;;;;;;8.28;100.00;96278.31;5015639;28;20045;-61
2022/06/10 02:21:21;;;;;;;4.15;2.45;;;;;;;8.35;100.00;96283.13;5094933;28;20040;-61
2022/06/10 02:23:53;;;;;;;3.45;3.00;;;;;;;8.31;100.00;96280.75;5101677;28;20035;-61
2022/06/10 02:26:20;;;;;;;4.03;2.45;;;;;;;8.26;100.00;96274.97;5095849;28;20024;-61
2022/06/10 02:28:53;;;;;;;4.63;2.33;;;;;;;8.30;100.00;96281.69;5100526;27;20035;-60
2022/06/10 02:31:22;;;;;;;2.40;1.95;;;;;;;8.35;100.00;96276.09;5103177;27;20028;-61
2022/06/10 02:33:51;;;;;;;5.90;2.92;;;;;;;8.32;100.00;96278.94;5107023;27;20054;-60
2022/06/10 02:36:31;;;;;;;4.10;2.40;;;;;;;8.40;100.00;96286.25;5102739;27;20027;-60
2022/06/10 02:39:09;;;;;;;4.50;2.15;;;;;;;8.40;100.00;96287.09;5103476;27;20038;-60
2022/06/10 02:41:42;;;;;;;3.17;2.40;;;;;;;8.29;100.00;96285.28;5102782;27;20028;-60
2022/06/10 02:44:42;;;;;;;3.20;2.80;;;;;;;8.22;100.00;96289.28;5100126;27;20027;-61
2022/06/10 02:47:27;;;;;;;4.97;3.13;;;;;;;8.16;100.00;96285.31;5097271;27;20097;-61
2022/06/10 02:49:53;;;;;;;7.47;3.50;;;;;;;8.15;100.00;96295.94;5101776;27;20027;-61
2022/06/10 02:52:20;;;;;;;3.63;3.03;;;;;;;8.16;100.00;96290.56;5101721;27;20595;-61
2022/06/10 02:54:46;;;;;;;9.48;3.42;;;;;;;8.19;100.00;96293.94;5100933;27;20101;-61
2022/06/10 02:57:15;;;;;;;4.90;3.63;;;;;;;8.20;100.00;96295.59;5104999;27;20039;-61
2022/06/10 03:02:48;;;;;;;7.45;2.88;;;;;;;8.15;100.00;96303.78;5100821;27;20046;-60
2022/06/10 03:05:36;;;;;;;3.35;2.95;;;;;;;8.11;100.00;96302.34;5100399;27;20031;-61
2022/06/10 03:08:13;;;;;;;3.55;2.28;;;;;;;8.05;100.00;96302.78;5058214;27;20471;-61
2022/06/10 03:11:16;;;;;;;5.05;2.42;;;;;;;8.07;100.00;96306.13;5109306;27;20035;-61
2022/06/10 03:13:56;;;;;;;3.65;2.20;;;;;;;8.09;100.00;96307.69;5104024;27;20414;-61
2022/06/10 03:16:30;;;;;;;6.05;2.45;;;;;;;8.07;100.00;96303.50;5104237;27;20554;-61
2022/06/10 03:19:07;;;;;;;3.63;2.47;;;;;;;8.02;100.00;96304.69;5096214;27;20032;-60
2022/06/10 03:21:46;;;;;;;4.13;2.28;;;;;;;8.00;100.00;96303.94;5099230;27;20056;-61
2022/06/10 03:24:41;;;;;;;2.10;2.00;;;;;;;7.99;100.00;96302.28;5109482;27;20044;-61
2022/06/10 03:27:19;;;;;;;4.28;2.28;;;;;;;7.94;100.00;96301.78;5100720;27;20154;-61
2022/06/10 03:30:05;;;;;;;4.93;2.40;;;;;;;7.93;100.00;96307.97;5107069;27;20035;-61
2022/06/10 03:32:42;;;;;;;12.48;2.47;;;;;;;7.86;100.00;96307.56;5102144;27;20028;-61
2022/06/10 03:35:18;;;;;;;4.80;2.28;;;;;;;7.86;100.00;96310.19;5097331;27;20028;-61
2022/06/10 03:37:44;;;;;;;2.40;1.98;;;;;;;7.88;100.00;96323.22;5104045;27;20128;-61
2022/06/10 03:40:21;;;;;;;2.15;1.92;;;;;;;7.83;100.00;96320.91;5109708;27;20031;-60
2022/06/10 03:42:54;;;;;;;2.40;1.88;;;;;;;7.80;100.00;96322.91;5109067;27;20125;-60
2022/06/10 03:45:23;;;;;;;3.03;2.10;;;;;;;7.87;100.00;96324.16;5104677;27;20049;-61
2022/06/10 03:47:49;;;;;;;3.42;2.20;;;;;;;7.83;100.00;96322.66;5104206;27;20046;-61
2022/06/10 03:50:23;;;;;;;2.17;1.98;;;;;;;7.85;100.00;96323.44;5106289;27;20023;-61
2022/06/10 03:52:48;;;;;;;2.55;2.35;;;;;;;7.85;100.00;96324.25;5100899;27;20034;-60
2022/06/10 03:55:17;;;;;;;3.70;2.22;;;;;;;7.79;100.00;96329.94;5102531;27;20499;-61
2022/06/10 03:57:43;;;;;;;3.00;2.03;;;;;;;7.72;100.00;96334.78;5100102;27;20518;-61
2022/06/10 04:00:14;;;;;;;2.13;1.95;;;;;;;7.68;100.00;96329.84;5097870;27;20039;-61
2022/06/10 04:02:39;;;;;;;5.18;2.22;;;;;;;7.67;100.00;96336.88;5104058;27;20639;-61
2022/06/10 04:05:06;;;;;;;6.05;1.95;;;;;;;7.71;100.00;96333.09;5098615;27;20018;-62
2022/06/10 04:07:31;;;;;;;2.33;1.92;;;;;;;7.73;100.00;96335.59;5101180;27;20028;-61
2022/06/10 04:09:56;;;;;;;2.25;1.90;;;;;;;7.73;100.00;96331.19;5101556;27;20402;-61
2022/06/10 04:12:23;;;;;;;5.40;2.30;;;;;;;7.70;100.00;96328.81;5101169;27;20034;-61
2022/06/10 04:14:48;;;;;;;3.45;2.20;;;;;;;7.68;100.00;96328.06;5105734;27;20023;-61
2022/06/10 04:17:13;;;;;;;2.47;2.00;;;;;;;7.73;100.00;96331.19;5097171;27;20077;-60
2022/06/10 04:19:39;;;;;;;2.47;1.95;;;;;;;7.78;100.00;96337.91;5097654;27;20035;-60
2022/06/10 04:22:04;;;;;;;3.33;2.00;;;;;;;7.80;100.00;96336.00;5099065;27;20528;-61
2022/06/10 04:24:30;;;;;;;2.40;2.10;;;;;;;7.84;100.00;96340.94;5098720;27;20020;-61
2022/06/10 04:26:56;;;;;;;3.65;1.95;;;;;;;7.88;100.00;96338.94;5098419;27;20032;-61
2022/06/10 04:29:21;;;;;;;7.28;2.20;;;;;;;7.88;100.00;96338.94;5100409;27;20024;-61
2022/06/10 04:31:47;;;;;;;3.92;3.35;;;;;;;7.83;100.00;96341.03;5096544;27;20019;-60
2022/06/10 04:34:14;;;;;;;4.20;3.33;;;;;;;7.80;100.00;96346.50;5100852;28;20019;-61
2022/06/10 04:36:40;;;;;;;3.50;2.10;;;;;;;7.89;100.00;96340.59;5101171;27;21654;-61
2022/06/10 04:39:06;;;;;;;3.85;2.10;;;;;;;7.86;100.00;96349.50;5099468;27;20460;-61
2022/06/10 04:41:31;;;;;;;3.13;2.63;;;;;;;7.84;100.00;96342.69;5094091;27;20099;-61
2022/06/10 04:43:57;;;;;;;5.72;2.42;;;;;;;7.87;100.00;96339.88;5096639;27;20016;-60
2022/06/10 04:46:30;;;;;;;8.48;2.40;;;;;;;7.88;100.00;96344.19;5095968;27;20521;-61
2022/06/10 04:48:55;;;;;;;2.25;2.10;;;;;;;7.88;100.00;96346.81;5102293;27;20032;-60
2022/06/10 04:51:21;;;;;;;5.38;2.67;;;;;;;7.86;100.00;96340.84;5096455;27;20016;-61
2022/06/10 04:53:47;;;;;;;3.20;2.10;;;;;;;7.87;100.00;96340.69;5101594;27;20031;-61
2022/06/10 04:56:13;;;;;;;4.22;2.08;;;;;;;7.93;100.00;96352.53;5101840;27;20036;-61
2022/06/10 04:58:39;;;;;;;2.15;2.03;;;;;;;7.96;100.00;96354.94;5095720;27;20098;-61
2022/06/10 05:01:05;;;;;;;5.20;2.78;;;;;;;7.93;100.00;96357.78;5099473;27;20410;-60
2022/06/10 05:03:30;;;;;;;6.18;2.95;;;;;;;7.96;100.00;96362.00;5095985;28;20107;-61
2022/06/10 05:05:56;;;;;;;4.40;4.10;;;;;;;8.08;100.00;96355.03;5097231;27;20058;-60
2022/06/10 05:08:21;;;;;;;6.85;4.20;;;;;;;8.22;100.00;96357.47;5096890;27;20024;-61
2022/06/10 05:10:47;;;;;;;7.15;5.93;;;;;;;8.38;100.00;96351.13;5099169;27;20629;-60
2022/06/10 05:13:16;;;;;;;6.93;6.25;;;;;;;8.50;100.00;96357.28;5097944;27;20032;-61
2022/06/10 05:15:42;;;;;;;10.00;7.60;;;;;;;8.64;100.00;96353.66;5102045;27;20483;-61
2022/06/10 05:18:07;;;;;;;8.77;7.10;;;;;;;8.79;100.00;96355.13;5096505;28;20043;-60
2022/06/10 05:20:38;;;;;;;10.68;5.53;;;;;;;8.94;100.00;96353.16;5093540;27;20028;-60
2022/06/10 05:23:04;;;;;;;5.75;3.92;;;;;;;9.07;100.00;96354.88;5096246;28;20072;-61
2022/06/10 05:25:30;;;;;;;6.80;2.55;;;;;;;9.14;100.00;96356.06;5098939;27;20035;-61
2022/06/10 05:27:55;;;;;;;7.75;2.00;;;;;;;9.29;100.00;96357.53;5097128;28;20016;-61
2022/06/10 05:30:24;;;;;;;2.28;1.67;;;;;;;9.43;100.00;96358.25;5094347;27;20028;-61
2022/06/10 05:32:49;;;;;;;5.57;1.80;;;;;;;9.57;99.91;96358.00;5095207;28;20039;-60
2022/06/10 05:35:15;;;;;;;3.13;1.83;;;;;;;9.70;98.65;96351.78;5093495;28;20061;-61
2022/06/10 05:37:41;;;;;;;1.52;1.42;;;;;;;9.82;98.77;96357.88;5103415;28;20016;-61
2022/06/10 05:40:08;;;;;;;2.40;2.20;;;;;;;9.92;95.71;96350.94;5099319;28;20073;-61
2022/06/10 05:42:33;;;;;;;2.15;1.88;;;;;;;10.02;95.68;96353.69;5101449;28;20030;-61
2022/06/10 05:44:58;;;;;;;7.22;1.70;;;;;;;10.11;96.03;96349.47;5098371;28;20032;-61
2022/06/10 05:47:27;;;;;;;3.42;1.83;;;;;;;10.25;94.93;96351.00;5098018;28;20020;-61
2022/06/10 05:49:57;;;;;;;1.60;1.50;;;;;;;10.35;94.49;96349.28;5095052;28;20397;-61
2022/06/10 05:52:25;;;;;;;2.17;1.80;;;;;;;10.46;93.94;96354.56;5093588;28;20027;-60
2022/06/10 05:54:52;;;;;;;4.43;1.65;;;;;;;10.57;93.46;96337.88;5101165;28;20039;-61
2022/06/10 05:57:19;;;;;;;1.50;1.40;;;;;;;10.62;92.54;96340.16;5091622;28;20060;-61
2022/06/10 05:59:47;;;;;;;7.10;1.88;;;;;;;10.74;91.24;96338.28;5098090;28;20028;-61
2022/06/10 06:02:14;;;;;;;2.30;1.70;;;;;;;10.84;91.31;96339.19;5099700;27;20028;-61
2022/06/10 06:04:40;;;;;;;2.40;1.30;;;;;;;10.96;90.26;96337.31;5101920;27;20042;-61
2022/06/10 06:07:06;;;;;;;2.72;1.63;;;;;;;11.11;90.07;96340.47;5096102;27;20027;-61
2022/06/10 06:09:32;;;;;;;2.30;1.42;;;;;;;11.27;87.93;96340.03;5099992;27;20038;-61
2022/06/10 06:11:58;;;;;;;4.20;1.45;;;;;;;11.29;86.46;96335.47;5097056;27;20491;-60
2022/06/10 06:14:26;;;;;;;2.53;1.17;;;;;;;11.41;86.30;96341.47;5095845;27;20016;-61
2022/06/10 06:16:54;;;;;;;1.27;1.23;;;;;;;11.65;84.94;96335.06;5101270;27;20023;-59
2022/06/10 06:19:20;;;;;;;1.65;1.55;;;;;;;11.94;83.21;96333.50;5099733;27;20081;-59
2022/06/10 06:21:46;;;;;;;1.95;1.60;;;;;;;12.15;81.93;96343.97;5096686;27;20621;-60
2022/06/10 06:24:11;;;;;;;2.78;1.50;;;;;;;12.35;81.18;96339.56;5105029;27;20023;-60
2022/06/10 06:26:36;;;;;;;1.40;1.30;;;;;;;12.56;79.61;96334.19;5105733;27;20092;-60
2022/06/10 06:29:02;;;;;;;7.75;1.40;;;;;;;12.71;79.33;96344.31;5102404;27;20479;-60
2022/06/10 06:31:28;;;;;;;6.72;1.60;;;;;;;13.04;79.46;96334.28;5096705;27;20120;-61
2022/06/10 06:33:53;;;;;;;2.22;1.70;;;;;;;13.27;77.73;96339.25;5108661;27;20027;-60
2022/06/10 06:36:22;;;;;;;3.25;1.70;;;;;;;13.55;77.94;96334.88;5102866;27;20510;-60
2022/06/10 06:38:48;;;;;;;2.17;1.25;;;;;;;13.84;77.79;96330.44;5105674;27;20019;-61
2022/06/10 06:41:14;;;;;;;1.52;1.42;;;;;;;14.07;74.66;96330.06;5099040;27;20020;-60
2022/06/10 06:43:40;;;;;;;12.98;1.38;;;;;;;14.47;73.76;96336.75;5098373;28;20106;-60
2022/06/10 06:46:05;;;;;;;2.75;1.23;;;;;;;14.69;71.38;96327.53;5087482;28;20164;-60
2022/06/10 06:48:31;;;;;;;3.58;1.40;;;;;;;15.18;71.61;96329.78;5104636;27;20035;-60
2022/06/10 06:50:57;;;;;;;5.00;1.48;;;;;;;15.55;67.97;96332.28;5103405;27;20040;-60
2022/06/10 06:53:22;;;;;;;2.50;1.25;;;;;;;15.86;67.64;96326.50;5094821;27;20553;-60
2022/06/10 06:55:47;;;;;;;4.20;1.15;;;;;;;16.22;66.52;96325.47;5098492;27;20050;-61
2022/06/10 06:58:16;;;;;;;3.17;1.20;;;;;;;16.28;64.73;96328.31;5096543;27;20035;-60
2022/06/10 07:00:41;;;;;;;2.95;1.40;;;;;;;16.22;64.83;96328.94;5096615;27;20085;-61
2022/06/10 07:03:07;;;;;;;4.82;1.35;;;;;;;16.72;64.09;96331.72;5077410;28;20028;-61
2022/06/10 07:05:35;;;;;;;1.70;1.20;;;;;;;17.03;62.73;96333.75;5096934;27;20024;-60
2022/06/10 07:08:00;;;;;;;2.30;1.35;;;;;;;17.42;60.27;96335.69;5102283;27;20841;-60
2022/06/10 07:10:26;;;;;;;1.92;1.25;;;;;;;17.75;59.51;96337.47;5095874;27;20032;-61
2022/06/10 07:12:52;;;;;;;1.55;1.30;;;;;;;17.70;58.33;96329.16;5102559;27;20019;-61
2022/06/10 07:15:19;;;;;;;4.43;1.38;;;;;;;17.82;58.60;96341.09;5096931;27;20019;-61
2022/06/10 07:17:44;;;;;;;1.45;1.08;;;;;;;17.83;57.82;96336.59;5098409;27;20028;-61
2022/06/10 07:20:20;;;;;;;3.90;1.05;;;;;;;18.23;57.35;96339.28;5100939;27;20088;-60
2022/06/10 07:22:45;;;;;;;2.80;1.15;;;;;;;18.64;56.12;96330.22;5104066;27;20457;-61
2022/06/10 07:25:12;;;;;;;2.78;1.33;;;;;;;18.92;53.85;96330.50;5094807;27;20032;-60
2022/06/10 07:27:38;;;;;;;1.85;1.40;;;;;;;18.77;52.30;96330.47;5095370;27;20024;-60
2022/06/10 07:30:05;;;;;;;2.78;1.30;;;;;;;18.90;52.46;96329.88;5098019;27;20042;-61
2022/06/10 07:32:31;;;;;;;2.25;1.30;;;;;;;19.23;51.79;96323.44;5095149;27;20398;-60
2022/06/10 07:34:56;;;;;;;3.42;1.45;;;;;;;19.15;52.12;96324.34;5093102;27;20024;-60
2022/06/10 07:37:23;;;;;;;1.63;1.10;;;;;;;19.18;49.99;96334.66;5095608;27;20020;-60
2022/06/10 07:39:49;;;;;;;4.03;1.10;;;;;;;19.55;50.63;96326.78;5099685;27;20079;-60
2022/06/10 07:42:14;;;;;;;2.47;1.27;;;;;;;19.17;49.98;96322.31;5102170;27;20432;-60
2022/06/10 07:44:39;;;;;;;3.22;1.35;;;;;;;19.81;48.82;96325.53;5103227;27;20084;-60
2022/06/10 07:47:09;;;;;;;2.25;1.20;;;;;;;19.75;50.31;96319.06;5092658;27;21024;-60
2022/06/10 07:49:35;;;;;;;5.20;1.40;;;;;;;20.10;48.65;96319.34;5100449;28;20509;-60
2022/06/10 07:52:01;;;;;;;4.43;1.15;;;;;;;20.32;46.43;96322.91;5096530;27;20490;-60
2022/06/10 07:54:26;;;;;;;2.70;1.17;;;;;;;20.44;46.31;96317.88;5098281;27;20043;-60
2022/06/10 07:56:52;;;;;;;2.88;1.10;;;;;;;20.45;46.91;96313.38;5100206;27;20051;-60
2022/06/10 07:59:18;;;;;;;1.15;0.98;;;;;;;20.50;45.44;96310.97;5100359;27;20055;-60
2022/06/10 08:01:43;;;;;;;5.45;1.33;;;;;;;20.19;45.07;96317.38;5094612;27;20047;-60
2022/06/10 08:04:09;;;;;;;2.00;1.20;;;;;;;20.15;47.62;96314.28;5099072;27;20027;-60
2022/06/10 08:06:40;;;;;;;1.20;1.02;;;;;;;20.39;46.00;96312.28;5102158;27;20111;-61
2022/06/10 08:09:06;;;;;;;1.67;1.33;;;;;;;20.51;44.38;96314.44;5097241;27;20059;-60
2022/06/10 08:11:32;;;;;;;3.53;1.00;;;;;;;20.45;46.00;96318.72;5100375;27;20092;-60
2022/06/10 08:13:57;;;;;;;1.55;0.98;;;;;;;21.18;45.10;96312.41;5103259;27;21525;-60
2022/06/10 08:16:23;;;;;;;2.47;1.40;;;;;;;21.17;43.43;96314.28;5104552;27;20073;-60
2022/06/10 08:18:50;;;;;;;0.85;0.85;;;;;;;20.95;44.77;96309.97;5097537;27;20083;-60
2022/06/10 08:24:01;;;;;;;4.93;1.23;;;;;;;20.94;45.59;96300.28;5097714;27;20984;-60
2022/06/10 08:26:27;;;;;;;1.83;1.00;;;;;;;20.97;44.01;96302.59;5095573;27;20047;-61
2022/06/10 08:28:53;;;;;;;0.90;0.80;;;;;;;20.61;43.68;96297.06;5100245;27;20020;-60
2022/06/10 08:31:18;;;;;;;2.20;1.25;;;;;;;20.74;44.73;96299.03;5100025;27;20548;-60
2022/06/10 08:33:43;;;;;;;1.48;0.80;;;;;;;21.02;44.20;96301.00;5100933;27;20028;-61
2022/06/10 08:36:10;;;;;;;4.05;1.10;;;;;;;21.06;44.33;96288.03;5097106;27;20103;-60
2022/06/10 08:38:36;;;;;;;2.92;1.10;;;;;;;21.04;44.11;96292.75;5101115;27;20119;-60
2022/06/10 08:41:19;;;;;;;2.63;1.08;;;;;;;21.56;42.28;96289.84;5097425;27;20114;-61
2022/06/10 08:44:03;;;;;;;2.05;1.25;;;;;;;21.85;41.40;96293.31;5100681;27;20119;-60
2022/06/10 08:46:51;;;;;;;2.83;1.13;;;;;;;22.46;40.31;96297.06;5098478;27;20063;-61
2022/06/10 08:49:54;;;;;;;1.77;0.82;;;;;;;21.99;40.80;96291.53;5096914;27;20027;-60
2022/06/10 08:52:54;;;;;;;3.30;1.17;;;;;;;21.83;41.85;96296.19;5092593;27;20115;-61
2022/06/10 08:55:44;;;;;;;3.13;1.25;;;;;;;21.81;41.36;96303.59;5033372;28;20057;-60
2022/06/10 08:58:14;;;;;;;2.05;1.10;;;;;;;21.99;40.87;96289.66;5098343;27;20081;-60
2022/06/10 09:00:41;;;;;;;3.30;1.00;;;;;;;22.09;41.81;96288.47;5098493;27;20094;-60
2022/06/10 09:03:16;;;;;;;1.38;1.00;;;;;;;22.12;41.60;96282.69;5095529;27;20032;-60
2022/06/10 09:05:47;;;;;;;2.47;1.10;;;;;;;22.97;39.38;96286.81;5097607;27;20023;-60
2022/06/10 09:08:16;;;;;;;2.58;1.05;;;;;;;22.69;40.34;96287.84;5102687;27;20034;-60
2022/06/10 09:10:56;;;;;;;2.90;1.50;;;;;;;22.59;40.36;96289.03;5101746;28;20039;-60
2022/06/10 09:13:57;;;;;;;3.63;1.33;;;;;;;22.45;39.95;96287.34;5096124;28;20111;-60
2022/06/10 09:16:38;;;;;;;2.28;1.10;;;;;;;22.68;39.89;96280.81;5080830;27;20122;-60
2022/06/10 09:19:36;;;;;;;3.55;1.30;;;;;;;22.46;38.80;96283.66;5092450;28;20179;-60
2022/06/10 09:22:04;;;;;;;1.35;1.05;;;;;;;22.78;40.48;96291.16;5096058;28;20476;-60
2022/06/10 09:24:51;;;;;;;3.47;1.33;;;;;;;22.74;39.06;96293.41;5093734;27;20040;-60
2022/06/10 09:27:33;;;;;;;3.67;1.17;;;;;;;23.12;39.74;96292.81;5097582;27;20153;-60
2022/06/10 09:30:03;;;;;;;3.20;1.10;;;;;;;23.42;38.53;96287.03;5095167;28;20085;-60
2022/06/10 09:33:06;;;;;;;1.70;1.27;;;;;;;23.59;37.54;96278.53;5093832;28;20134;-60
2022/06/10 09:36:05;;;;;;;1.42;1.10;;;;;;;23.77;36.84;96277.06;5093124;28;20081;-60
2022/06/10 09:39:00;;;;;;;1.33;0.93;;;;;;;24.29;37.00;96277.88;5089689;28;20410;-60
2022/06/10 09:41:35;;;;;;;1.57;0.80;;;;;;;23.84;35.99;96281.34;5095611;28;20016;-60
2022/06/10 09:44:03;;;;;;;2.45;1.17;;;;;;;23.67;37.65;96280.97;5097081;28;20296;-60
2022/06/10 09:46:58;;;;;;;4.07;1.50;;;;;;;23.47;36.61;96272.97;5096562;28;20035;-60
2022/06/10 09:49:44;;;;;;;1.88;1.33;;;;;;;23.35;37.24;96285.38;5092926;28;20080;-60
2022/06/10 09:52:28;;;;;;;7.68;1.25;;;;;;;23.32;37.88;96275.88;5095781;28;20032;-60
2022/06/10 09:55:14;;;;;;;2.22;1.13;;;;;;;23.85;36.84;96290.25;5099612;28;20640;-60
2022/06/10 09:58:20;;;;;;;1.23;1.13;;;;;;;23.69;37.07;96286.16;5092659;28;20036;-60
2022/06/10 10:01:02;;;;;;;5.93;1.52;;;;;;;23.92;36.36;96288.34;5100760;28;20558;-60
2022/06/10 10:03:36;;;;;;;5.13;1.30;;;;;;;23.86;37.14;96284.66;5097672;28;20040;-60
2022/06/10 10:06:24;;;;;;;2.03;1.20;;;;;;;24.19;36.37;96280.19;5096091;28;20024;-60
2022/06/10 10:09:13;;;;;;;4.90;1.27;;;;;;;23.94;37.28;96286.28;5096203;28;20498;-60
2022/06/10 10:11:54;;;;;;;2.05;1.42;;;;;;;24.35;36.48;96288.81;5067183;27;20114;-60
2022/06/10 10:14:40;;;;;;;3.40;1.00;;;;;;;24.65;35.37;96288.22;5098316;28;20467;-60
2022/06/10 10:17:45;;;;;;;1.75;1.10;;;;;;;24.53;35.34;96293.47;5097950;28;20023;-60
2022/06/10 10:20:22;;;;;;;2.75;1.25;;;;;;;24.40;36.08;96289.00;5092644;28;20398;-60
2022/06/10 10:23:07;;;;;;;1.95;1.40;;;;;;;24.63;36.14;96290.31;5097712;28;20512;-60
2022/06/10 10:25:32;;;;;;;2.90;1.50;;;;;;;24.63;35.89;96290.31;5100100;28;20035;-60
2022/06/10 10:27:59;;;;;;;5.15;1.20;;;;;;;24.79;36.71;96295.22;5093058;28;20020;-60
2022/06/10 10:30:36;;;;;;;4.20;1.40;;;;;;;25.03;35.62;96303.53;5095059;28;20038;-60
2022/06/10 10:33:06;;;;;;;4.60;1.70;;;;;;;25.06;35.87;96297.72;5094036;28;20138;-60
2022/06/10 10:35:37;;;;;;;5.30;1.70;;;;;;;25.09;36.80;96300.00;5099740;28;20394;-60
2022/06/10 10:38:09;;;;;;;5.80;1.60;;;;;;;25.62;35.83;96302.44;5077959;28;20505;-60
2022/06/10 10:40:43;;;;;;;2.85;1.50;;;;;;;25.05;35.96;96306.84;5097891;28;20028;-60
2022/06/10 10:43:18;;;;;;;2.95;1.60;;;;;;;25.20;37.73;96316.47;5093595;28;20501;-61
2022/06/10 10:46:00;;;;;;;;;;;;;;;25.11;37.78;96316.75;5095911;28;20024;-61
2022/06/10 10:48:33;;;;;;;2.45;1.55;;;;;;;25.41;35.34;96313.38;5093537;27;19925;-60
2022/06/10 10:51:01;;;;;;;3.65;1.38;;;;;;;25.45;35.79;96317.28;5100681;27;20028;-60
2022/06/10 10:53:32;;;;;;;3.95;1.60;;;;;;;25.85;36.35;96309.88;5101452;27;20103;-60
2022/06/10 10:56:00;;;;;;;4.32;1.65;;;;;;;26.42;34.18;96323.13;5104198;27;20143;-61
2022/06/10 10:58:33;;;;;;;4.85;1.25;;;;;;;26.29;36.23;96323.28;5100730;27;20032;-61
2022/06/10 11:01:06;;;;;;;3.88;1.50;;;;;;;26.18;33.79;96322.16;5101072;27;20048;-60
2022/06/10 11:03:53;;;;;;;4.22;1.48;;;;;;;25.91;33.63;96314.34;5103539;27;20067;-60
2022/06/10 11:06:32;;;;;;;6.30;1.15;;;;;;;25.68;35.51;96317.72;5096310;27;20039;-60
2022/06/10 11:09:12;;;;;;;2.42;1.35;;;;;;;25.77;38.06;96310.97;5097461;27;20016;-61
2022/06/10 11:11:41;;;;;;;3.42;1.42;;;;;;;26.01;34.50;96314.69;5095118;27;20509;-61
2022/06/10 11:14:23;;;;;;;4.15;2.25;;;;;;;26.63;34.53;96312.03;5092714;27;20421;-60
2022/06/10 11:17:24;;;;;;;3.33;1.50;;;;;;;26.33;33.57;96312.88;5099963;27;20035;-61
2022/06/10 11:19:57;;;;;;;5.32;1.52;;;;;;;26.51;32.84;96306.59;5006718;28;20040;-61
2022/06/10 11:22:24;;;;;;;2.45;1.55;;;;;;;26.21;34.26;96310.09;5083017;28;20093;-61
2022/06/10 11:24:55;;;;;;;3.35;1.50;;;;;;;26.50;34.66;96305.78;5100380;27;20436;-61
2022/06/10 11:27:31;;;;;;;3.85;1.40;;;;;;;25.97;34.29;96304.56;5097898;27;20032;-60
2022/06/10 11:30:01;;;;;;;4.90;1.60;;;;;;;26.41;33.93;96293.66;5099659;27;20035;-62
2022/06/10 11:32:57;;;;;;;3.63;1.38;;;;;;;26.19;34.39;96298.72;5097275;27;20062;-61
2022/06/10 11:35:38;;;;;;;5.55;1.45;;;;;;;26.60;33.46;96292.56;5073325;27;20508;-62
2022/06/10 11:38:13;;;;;;;5.05;1.38;;;;;;;26.56;32.66;96290.56;5077772;28;20490;-62
2022/06/10 11:40:47;;;;;;;1.58;1.10;;;;;;;26.78;33.90;96290.84;5101182;27;20125;-62
2022/06/10 11:43:20;;;;;;;3.95;1.42;;;;;;;27.13;31.44;96279.34;5094531;27;20419;-62
2022/06/10 11:45:54;;;;;;;3.65;1.50;;;;;;;27.09;32.90;96277.31;5096138;27;20172;-62
2022/06/10 11:48:31;;;;;;;2.30;1.58;;;;;;;27.07;32.88;96263.22;5091948;27;20036;-60
2022/06/10 11:51:10;;;;;;;5.38;1.67;;;;;;;26.70;33.38;96264.19;5098334;27;20024;-60
2022/06/10 11:53:57;;;;;;;2.15;1.30;;;;;;;26.43;34.59;96264.59;5095977;27;20028;-60
2022/06/10 12:02:11;;;;;;;1.58;1.20;;;;;;;26.64;35.45;96254.28;5093444;27;20082;-61
2022/06/10 12:04:44;;;;;;;4.85;1.40;;;;;;;26.81;34.27;96249.88;5104114;27;20036;-61
2022/06/10 12:07:19;;;;;;;3.05;1.05;;;;;;;26.87;33.64;96249.00;5106936;27;20479;-61
2022/06/10 12:09:49;;;;;;;2.35;1.17;;;;;;;26.70;32.55;96240.69;5101014;27;20043;-61
2022/06/10 12:12:28;;;;;;;3.35;1.40;;;;;;;26.86;33.29;96233.00;5098070;27;20555;-61